createdAt,value
2017-09-02T00:00:22.704Z,15.67
2017-09-02T00:02:50.252Z,17.43
2017-09-02T00:05:17.800Z,17.70
2017-09-02T00:07:45.351Z,18.17
2017-09-02T00:10:12.892Z,17.10
2017-09-02T00:12:40.398Z,17.30
2017-09-02T00:15:07.948Z,17.00
2017-09-02T00:17:35.498Z,17.33
2017-09-02T00:20:03.015Z,17.20
2017-09-02T00:22:30.564Z,16.37
2017-09-02T00:24:58.079Z,16.83
2017-09-02T00:27:25.635Z,17.33
2017-09-02T00:29:53.171Z,16.60
2017-09-02T00:32:20.691Z,17.37
2017-09-02T00:34:48.282Z,17.20
2017-09-02T00:37:15.868Z,17.30
2017-09-02T00:39:43.383Z,19.07
2017-09-02T00:42:10.924Z,19.40
2017-09-02T00:44:38.471Z,19.20
2017-09-02T00:47:06.059Z,18.10
2017-09-02T00:49:33.599Z,18.50
2017-09-02T00:52:01.120Z,17.80
2017-09-02T00:54:28.696Z,17.40
2017-09-02T00:56:56.269Z,18.13
2017-09-02T00:59:23.825Z,19.30
2017-09-02T01:01:51.331Z,19.10
2017-09-02T01:04:18.846Z,20.37
2017-09-02T01:06:46.390Z,16.90
2017-09-02T01:09:13.928Z,19.10
2017-09-02T01:11:41.445Z,20.87
2017-09-02T01:14:09.048Z,18.33
2017-09-02T01:16:36.592Z,19.60
2017-09-02T01:19:04.109Z,19.97
2017-09-02T01:21:31.660Z,20.67
2017-09-02T01:23:59.186Z,21.53
2017-09-02T01:26:26.748Z,19.27
2017-09-02T01:28:54.300Z,19.17
2017-09-02T01:31:21.896Z,19.93
2017-09-02T01:33:49.461Z,17.53
2017-09-02T01:36:16.988Z,18.47
2017-09-02T01:38:44.510Z,17.30
2017-09-02T01:41:12.056Z,17.10
2017-09-02T01:43:39.615Z,16.83
2017-09-02T01:46:07.155Z,14.67
2017-09-02T01:48:34.693Z,14.80
2017-09-02T01:51:02.253Z,12.00
2017-09-02T01:53:29.832Z,13.93
2017-09-02T01:55:57.339Z,12.70
2017-09-02T01:58:24.881Z,12.70
2017-09-02T02:00:52.427Z,12.33
2017-09-02T02:03:19.988Z,13.40
2017-09-02T02:05:47.500Z,12.40
2017-09-02T02:08:15.015Z,13.27
2017-09-02T02:10:42.583Z,12.80
2017-09-02T02:13:10.096Z,13.47
2017-09-02T02:15:37.608Z,14.67
2017-09-02T02:18:05.158Z,14.00
2017-09-02T02:20:32.663Z,16.50
2017-09-02T02:23:00.219Z,16.03
2017-09-02T02:25:27.751Z,14.13
2017-09-02T02:27:55.300Z,15.70
2017-09-02T02:30:22.816Z,15.23
2017-09-02T02:32:50.388Z,17.00
2017-09-02T02:35:17.935Z,16.03
2017-09-02T02:37:45.479Z,16.20
2017-09-02T02:40:12.995Z,13.87
2017-09-02T02:42:40.543Z,14.90
2017-09-02T02:45:08.096Z,14.23
2017-09-02T02:47:35.606Z,14.90
2017-09-02T02:50:03.179Z,14.60
2017-09-02T02:52:30.737Z,14.30
2017-09-02T02:54:58.268Z,15.50
2017-09-02T02:57:25.812Z,15.80
2017-09-02T02:59:53.342Z,14.10
2017-09-02T03:02:20.897Z,15.33
2017-09-02T03:04:48.408Z,16.83
2017-09-02T03:07:15.982Z,15.70
2017-09-02T03:09:43.512Z,16.43
2017-09-02T03:12:11.090Z,17.40
2017-09-02T03:14:38.651Z,17.97
2017-09-02T03:17:06.155Z,15.60
2017-09-02T03:19:33.691Z,16.23
2017-09-02T03:22:01.239Z,15.23
2017-09-02T03:24:28.790Z,17.30
2017-09-02T03:26:56.356Z,16.20
2017-09-02T03:29:23.879Z,16.10
2017-09-02T03:31:51.391Z,16.90
2017-09-02T03:34:18.937Z,17.33
2017-09-02T03:36:46.448Z,17.07
2017-09-02T03:39:14.064Z,17.93
2017-09-02T03:41:41.583Z,16.70
2017-09-02T03:44:09.128Z,17.77
2017-09-02T03:46:36.679Z,18.67
2017-09-02T03:49:04.197Z,17.23
2017-09-02T03:51:31.796Z,17.47
2017-09-02T03:53:59.307Z,18.17
2017-09-02T03:56:26.820Z,20.10
2017-09-02T03:58:54.372Z,17.30
2017-09-02T04:01:21.941Z,16.93
2017-09-02T04:03:49.452Z,17.33
2017-09-02T04:06:16.976Z,16.93
2017-09-02T04:08:44.524Z,16.87
2017-09-02T04:11:12.083Z,16.90
2017-09-02T04:13:39.595Z,18.10
2017-09-02T04:16:07.140Z,17.20
2017-09-02T04:18:34.743Z,17.73
2017-09-02T04:21:02.308Z,21.53
2017-09-02T04:23:29.820Z,19.37
2017-09-02T04:25:57.336Z,19.03
2017-09-02T04:28:24.906Z,17.93
2017-09-02T04:30:52.427Z,19.37
2017-09-02T04:33:19.943Z,17.90
2017-09-02T04:35:47.523Z,20.97
2017-09-02T04:38:15.034Z,19.07
2017-09-02T04:40:42.577Z,18.90
2017-09-02T04:43:10.096Z,17.77
2017-09-02T04:45:37.655Z,18.63
2017-09-02T04:48:05.167Z,19.60
2017-09-02T04:50:32.730Z,18.30
2017-09-02T04:53:00.252Z,21.10
2017-09-02T04:55:27.768Z,18.47
2017-09-02T04:57:55.327Z,17.80
2017-09-02T05:00:22.845Z,18.50
2017-09-02T05:02:50.360Z,19.03
2017-09-02T05:05:17.951Z,15.80
2017-09-02T05:07:45.469Z,17.07
2017-09-02T05:10:13.012Z,16.47
2017-09-02T05:12:40.526Z,14.97
2017-09-02T05:15:08.070Z,13.87
2017-09-02T05:17:35.628Z,12.40
2017-09-02T05:20:03.149Z,15.93
2017-09-02T05:22:30.667Z,14.57
2017-09-02T05:24:58.208Z,14.40
2017-09-02T05:27:25.768Z,12.23
2017-09-02T05:29:53.275Z,14.73
2017-09-02T05:32:20.789Z,15.07
2017-09-02T05:34:48.350Z,14.07
2017-09-02T05:37:15.868Z,13.87
2017-09-02T05:39:43.393Z,12.23
2017-09-02T05:42:10.958Z,14.13
2017-09-02T05:44:38.494Z,11.57
2017-09-02T05:47:06.016Z,13.23
2017-09-02T05:49:33.576Z,10.60
2017-09-02T05:52:01.095Z,11.40
2017-09-02T05:54:28.623Z,11.80
2017-09-02T05:56:56.177Z,12.40
2017-09-02T05:59:23.692Z,10.77
2017-09-02T06:01:51.219Z,13.20
2017-09-02T06:04:18.784Z,12.17
2017-09-02T06:06:46.356Z,11.07
2017-09-02T06:09:13.868Z,12.30
2017-09-02T06:11:41.381Z,9.67
2017-09-02T06:14:08.903Z,9.50
2017-09-02T06:16:36.814Z,11.03
2017-09-02T06:19:04.367Z,10.10
2017-09-02T06:21:31.876Z,9.00
2017-09-02T06:23:59.430Z,10.00
2017-09-02T06:26:26.944Z,10.80
2017-09-02T06:28:54.508Z,9.47
2017-09-02T06:31:22.020Z,10.70
2017-09-02T06:33:49.536Z,11.90
2017-09-02T06:36:17.076Z,9.20
2017-09-02T06:38:44.604Z,11.50
2017-09-02T06:41:12.148Z,11.23
2017-09-02T06:43:39.691Z,10.13
2017-09-02T06:46:07.201Z,10.40
2017-09-02T06:48:34.760Z,11.00
2017-09-02T06:51:02.277Z,10.73
2017-09-02T06:53:29.796Z,10.33
2017-09-02T06:55:57.355Z,9.93
2017-09-02T06:58:24.868Z,10.43
2017-09-02T07:00:52.458Z,10.20
2017-09-02T07:03:19.970Z,10.07
2017-09-02T07:05:47.477Z,10.77
2017-09-02T07:08:15.046Z,9.03
2017-09-02T07:10:42.560Z,10.40
2017-09-02T07:13:10.075Z,9.80
2017-09-02T07:15:37.653Z,11.30
2017-09-02T07:18:05.163Z,9.23
2017-09-02T07:20:32.750Z,9.17
2017-09-02T07:23:00.279Z,7.80
2017-09-02T07:25:27.792Z,8.90
2017-09-02T07:27:55.344Z,8.50
2017-09-02T07:30:22.877Z,7.60
2017-09-02T07:32:50.429Z,8.80
2017-09-02T07:35:17.944Z,8.70
2017-09-02T07:37:45.481Z,10.10
2017-09-02T07:40:13.043Z,9.67
2017-09-02T07:42:40.548Z,9.60
2017-09-02T07:45:08.061Z,8.90
2017-09-02T07:47:35.616Z,10.03
2017-09-02T07:50:03.157Z,9.40
2017-09-02T07:52:30.661Z,8.70
2017-09-02T07:54:58.214Z,8.70
2017-09-02T07:57:25.727Z,9.30
2017-09-02T07:59:53.256Z,8.63
2017-09-02T08:02:20.810Z,8.70
2017-09-02T08:04:48.334Z,10.10
2017-09-02T08:07:15.924Z,8.77
2017-09-02T08:09:43.437Z,8.67
2017-09-02T08:12:11.017Z,9.77
2017-09-02T08:14:38.575Z,9.97
2017-09-02T08:17:06.084Z,9.80
2017-09-02T08:19:33.596Z,8.87
2017-09-02T08:22:01.144Z,10.60
2017-09-02T08:24:28.704Z,9.10
2017-09-02T08:26:56.224Z,9.17
2017-09-02T08:29:23.744Z,9.67
2017-09-02T08:31:51.332Z,8.33
2017-09-02T08:34:18.891Z,8.30
2017-09-02T08:36:46.401Z,8.00
2017-09-02T08:39:14.004Z,8.33
2017-09-02T08:41:41.540Z,7.47
2017-09-02T08:44:09.053Z,7.43
2017-09-02T08:46:36.602Z,7.80
2017-09-02T08:49:04.116Z,7.50
2017-09-02T08:51:31.696Z,6.77
2017-09-02T08:53:59.235Z,7.20
2017-09-02T08:56:26.743Z,6.73
2017-09-02T08:58:54.296Z,8.13
2017-09-02T09:01:21.800Z,8.47
2017-09-02T09:03:49.303Z,9.20
2017-09-02T09:06:16.847Z,8.97
2017-09-02T09:08:44.353Z,6.90
2017-09-02T09:11:12.668Z,8.00
2017-09-02T09:13:40.175Z,8.50
2017-09-02T09:16:07.740Z,8.97
2017-09-02T09:18:35.265Z,9.13
2017-09-02T09:21:02.801Z,7.57
2017-09-02T09:23:30.357Z,8.30
2017-09-02T09:25:57.915Z,8.50
2017-09-02T09:28:25.500Z,7.37
2017-09-02T09:30:53.088Z,7.40
2017-09-02T09:33:20.657Z,7.07
2017-09-02T09:35:48.216Z,5.70
2017-09-02T09:38:15.733Z,7.20
2017-09-02T09:40:43.303Z,6.30
2017-09-02T09:43:10.820Z,6.33
2017-09-02T09:45:38.336Z,5.77
2017-09-02T09:48:05.884Z,6.70
2017-09-02T09:50:33.421Z,6.00
2017-09-02T09:53:00.997Z,6.87
2017-09-02T09:55:28.503Z,4.70
2017-09-02T09:57:56.036Z,4.70
2017-09-02T10:00:23.618Z,5.40
2017-09-02T10:02:51.240Z,4.90
2017-09-02T10:05:18.758Z,4.63
2017-09-02T10:07:46.290Z,4.87
2017-09-02T10:10:13.851Z,3.73
2017-09-02T10:12:41.408Z,3.30
2017-09-02T10:15:08.915Z,3.20
2017-09-02T10:17:36.430Z,3.63
2017-09-02T10:20:03.983Z,3.30
2017-09-02T10:22:31.500Z,3.73
2017-09-02T10:24:59.008Z,3.53
2017-09-02T10:27:26.575Z,3.10
2017-09-02T10:29:54.089Z,3.57
2017-09-02T10:32:21.599Z,3.50
2017-09-02T10:34:49.156Z,3.00
2017-09-02T10:37:16.674Z,3.40
2017-09-02T10:39:44.186Z,4.80
2017-09-02T10:42:11.740Z,3.20
2017-09-02T10:44:39.252Z,3.40
2017-09-02T10:47:06.801Z,4.07
2017-09-02T10:49:34.363Z,3.23
2017-09-02T10:52:01.873Z,3.07
2017-09-02T10:54:29.441Z,3.20
2017-09-02T10:56:56.979Z,4.00
2017-09-02T10:59:24.488Z,2.97
2017-09-02T11:01:52.028Z,3.47
2017-09-02T11:04:19.549Z,3.87
2017-09-02T11:06:47.104Z,4.43
2017-09-02T11:09:14.613Z,4.20
2017-09-02T11:11:42.124Z,3.83
2017-09-02T11:14:09.663Z,4.27
2017-09-02T11:16:37.171Z,3.60
2017-09-02T11:19:04.715Z,4.20
2017-09-02T11:21:32.293Z,3.37
2017-09-02T11:23:59.799Z,3.80
2017-09-02T11:26:28.180Z,3.23
2017-09-02T11:28:55.733Z,3.20
2017-09-02T11:31:23.261Z,2.50
2017-09-02T11:33:50.769Z,3.10
2017-09-02T11:36:18.312Z,3.00
2017-09-02T11:38:45.819Z,3.20
2017-09-02T11:41:13.367Z,2.80
2017-09-02T11:43:40.871Z,2.80
2017-09-02T11:46:08.433Z,2.53
2017-09-02T11:48:35.944Z,2.20
2017-09-02T11:51:03.463Z,2.47
2017-09-02T11:53:31.004Z,2.20
2017-09-02T11:55:58.512Z,2.00
2017-09-02T11:58:26.064Z,2.43
2017-09-02T12:00:53.558Z,2.90
2017-09-02T12:03:21.089Z,2.80
2017-09-02T12:05:48.647Z,2.70
2017-09-02T12:08:16.156Z,2.93
2017-09-02T12:10:43.663Z,3.10
2017-09-02T12:13:11.220Z,3.23
2017-09-02T12:15:38.736Z,3.20
2017-09-02T12:18:06.244Z,4.10
2017-09-02T12:20:33.791Z,3.50
2017-09-02T12:23:01.344Z,4.23
2017-09-02T12:25:28.852Z,4.33
2017-09-02T12:27:56.359Z,3.70
2017-09-02T12:30:23.904Z,4.10
2017-09-02T12:32:51.420Z,3.30
2017-09-02T12:35:18.971Z,3.60
2017-09-02T12:37:46.481Z,3.33
2017-09-02T12:40:14.001Z,2.70
2017-09-02T12:42:41.560Z,3.57
2017-09-02T12:45:09.072Z,2.93
2017-09-02T12:47:36.580Z,3.10
2017-09-02T12:50:04.142Z,3.07
2017-09-02T12:52:31.658Z,3.73
2017-09-02T12:54:59.169Z,3.10
2017-09-02T12:57:26.723Z,3.90
2017-09-02T12:59:54.233Z,3.67
2017-09-02T13:02:21.736Z,3.33
2017-09-02T13:04:49.288Z,2.93
2017-09-02T13:07:16.795Z,3.37
2017-09-02T13:09:44.299Z,2.97
2017-09-02T13:12:11.838Z,3.60
2017-09-02T13:14:39.350Z,3.20
2017-09-02T13:17:06.891Z,3.27
2017-09-02T13:19:34.439Z,2.80
2017-09-02T13:22:01.945Z,3.90
2017-09-02T13:24:29.490Z,3.47
2017-09-02T13:26:57.020Z,3.47
2017-09-02T13:29:24.567Z,4.40
2017-09-02T13:31:52.120Z,3.80
2017-09-02T13:34:19.635Z,2.50
2017-09-02T13:36:47.143Z,3.67
2017-09-02T13:39:14.708Z,2.97
2017-09-02T13:41:42.223Z,3.53
2017-09-02T13:44:09.732Z,3.40
2017-09-02T13:46:37.275Z,3.50
2017-09-02T13:49:04.849Z,3.57
2017-09-02T13:51:32.359Z,3.80
2017-09-02T13:53:59.863Z,3.70
2017-09-02T13:56:27.416Z,4.67
2017-09-02T13:58:54.924Z,4.47
2017-09-02T14:01:22.486Z,4.30
2017-09-02T14:03:50.019Z,4.63
2017-09-02T14:06:17.523Z,4.10
2017-09-02T14:08:45.076Z,4.80
2017-09-02T14:11:12.597Z,4.73
2017-09-02T14:13:40.104Z,4.03
2017-09-02T14:16:07.631Z,4.70
2017-09-02T14:18:35.160Z,5.00
2017-09-02T14:21:02.716Z,4.97
2017-09-02T14:23:30.232Z,4.70
2017-09-02T14:25:57.766Z,5.20
2017-09-02T14:28:25.303Z,4.70
2017-09-02T14:30:52.815Z,4.97
2017-09-02T14:33:20.367Z,4.43
2017-09-02T14:35:47.873Z,4.50
2017-09-02T14:38:15.379Z,3.90
2017-09-02T14:40:42.959Z,4.10
2017-09-02T14:43:10.476Z,3.90
2017-09-02T14:45:37.998Z,4.10
2017-09-02T14:48:05.562Z,4.10
2017-09-02T14:50:33.067Z,3.90
2017-09-02T14:53:00.577Z,3.87
2017-09-02T14:55:28.132Z,4.30
2017-09-02T14:57:55.635Z,4.07
2017-09-02T15:00:23.141Z,4.23
2017-09-02T15:02:50.684Z,4.50
2017-09-02T15:05:18.196Z,4.77
2017-09-02T15:07:45.749Z,4.50
2017-09-02T15:10:13.290Z,4.23
2017-09-02T15:12:40.803Z,4.73
2017-09-02T15:15:08.355Z,4.10
2017-09-02T15:17:35.858Z,4.13
2017-09-02T15:20:03.370Z,3.90
2017-09-02T15:22:30.920Z,4.23
2017-09-02T15:24:58.467Z,4.63
2017-09-02T15:27:25.971Z,4.50
2017-09-02T15:29:53.470Z,4.93
2017-09-02T15:32:21.011Z,7.60
2017-09-02T15:34:48.521Z,5.00
2017-09-02T15:37:16.063Z,4.80
2017-09-02T15:39:43.572Z,5.47
2017-09-02T15:42:11.109Z,5.83
2017-09-02T15:44:38.628Z,4.67
2017-09-02T15:47:06.173Z,5.57
2017-09-02T15:49:33.678Z,5.83
2017-09-02T15:52:01.180Z,5.10
2017-09-02T15:54:28.716Z,4.50
2017-09-02T15:56:56.253Z,4.10
2017-09-02T15:59:23.804Z,4.27
2017-09-02T16:01:51.303Z,3.90
2017-09-02T16:04:18.799Z,5.37
2017-09-02T16:06:46.339Z,3.73
2017-09-02T16:09:13.843Z,4.10
2017-09-02T16:11:41.360Z,4.50
2017-09-02T16:14:08.903Z,3.43
2017-09-02T16:16:37.036Z,4.27
2017-09-02T16:19:04.592Z,4.90
2017-09-02T16:21:32.100Z,4.90
2017-09-02T16:23:59.620Z,5.87
2017-09-02T16:26:27.164Z,5.50
2017-09-02T16:28:54.696Z,5.70
2017-09-02T16:31:22.253Z,5.83
2017-09-02T16:33:49.765Z,6.47
2017-09-02T16:36:17.304Z,5.30
2017-09-02T16:38:44.838Z,5.93
2017-09-02T16:41:12.388Z,5.63
2017-09-02T16:43:39.908Z,5.77
2017-09-02T16:46:07.412Z,6.07
2017-09-02T16:48:34.937Z,5.77
2017-09-02T16:51:02.459Z,5.70
2017-09-02T16:53:30.000Z,5.97
2017-09-02T16:55:57.512Z,6.93
2017-09-02T16:58:25.061Z,6.43
2017-09-02T17:00:52.594Z,5.90
2017-09-02T17:03:20.131Z,6.00
2017-09-02T17:05:47.675Z,6.80
2017-09-02T17:08:15.196Z,7.80
2017-09-02T17:10:42.743Z,8.87
2017-09-02T17:13:10.253Z,8.07
2017-09-02T17:15:37.781Z,10.27
2017-09-02T17:18:05.328Z,9.67
2017-09-02T17:20:32.839Z,10.00
2017-09-02T17:23:00.389Z,10.17
2017-09-02T17:25:27.904Z,11.90
2017-09-02T17:27:55.457Z,12.23
2017-09-02T17:30:22.968Z,12.50
2017-09-02T17:32:50.483Z,13.20
2017-09-02T17:35:18.052Z,12.27
2017-09-02T17:37:45.607Z,13.30
2017-09-02T17:40:13.129Z,14.53
2017-09-02T17:42:40.640Z,13.10
2017-09-02T17:45:08.206Z,14.27
2017-09-02T17:47:35.724Z,13.87
2017-09-02T17:50:03.277Z,12.87
2017-09-02T17:52:30.796Z,14.47
2017-09-02T17:54:58.337Z,14.03
2017-09-02T17:57:25.855Z,15.07
2017-09-02T17:59:53.371Z,14.60
2017-09-02T18:02:20.923Z,15.50
2017-09-02T18:04:48.453Z,14.87
2017-09-02T18:07:16.011Z,17.67
2017-09-02T18:09:43.532Z,17.03
2017-09-02T18:12:11.081Z,16.20
2017-09-02T18:14:38.628Z,15.27
2017-09-02T18:17:06.136Z,14.67
2017-09-02T18:19:33.715Z,15.40
2017-09-02T18:22:01.225Z,16.17
2017-09-02T18:24:28.731Z,16.73
2017-09-02T18:26:56.280Z,17.47
2017-09-02T18:29:23.859Z,17.17
2017-09-02T18:31:51.384Z,17.13
2017-09-02T18:34:18.899Z,16.33
2017-09-02T18:36:46.448Z,16.50
2017-09-02T18:39:13.959Z,15.33
2017-09-02T18:41:41.499Z,15.33
2017-09-02T18:44:09.060Z,16.50
2017-09-02T18:46:38.192Z,16.83
2017-09-02T18:49:05.840Z,15.87
2017-09-02T18:51:33.408Z,16.07
2017-09-02T18:54:01.056Z,16.00
2017-09-02T18:56:28.644Z,16.90
2017-09-02T18:58:56.160Z,16.53
2017-09-02T19:01:23.690Z,15.13
2017-09-02T19:03:51.248Z,16.10
2017-09-02T19:06:18.772Z,18.30
2017-09-02T19:08:46.289Z,17.13
2017-09-02T19:11:13.848Z,16.90
2017-09-02T19:13:41.363Z,18.30
2017-09-02T19:16:08.899Z,16.73
2017-09-02T19:18:36.441Z,15.27
2017-09-02T19:21:03.953Z,17.43
2017-09-02T19:23:31.484Z,16.03
2017-09-02T19:25:59.071Z,16.27
2017-09-02T19:28:26.584Z,17.70
2017-09-02T19:30:54.128Z,17.53
2017-09-02T19:33:21.681Z,19.47
2017-09-02T19:35:49.232Z,18.23
2017-09-02T19:38:16.868Z,17.57
2017-09-02T19:40:44.378Z,16.30
2017-09-02T19:43:11.922Z,18.60
2017-09-02T19:45:39.467Z,16.57
2017-09-02T19:48:07.068Z,15.63
2017-09-02T19:50:34.601Z,17.00
2017-09-02T19:53:02.235Z,18.07
2017-09-02T19:55:29.747Z,17.77
2017-09-02T19:57:57.270Z,16.60
2017-09-02T20:00:24.812Z,16.20
2017-09-02T20:02:52.350Z,17.43
2017-09-02T20:05:19.955Z,17.17
2017-09-02T20:07:47.471Z,16.37
2017-09-02T20:10:14.992Z,17.30
2017-09-02T20:12:42.550Z,17.10
2017-09-02T20:15:10.067Z,16.10
2017-09-02T20:17:37.652Z,16.47
2017-09-02T20:20:05.172Z,16.43
2017-09-02T20:22:32.722Z,15.30
2017-09-02T20:25:00.275Z,16.70
2017-09-02T20:27:27.790Z,15.47
2017-09-02T20:29:55.337Z,17.23
2017-09-02T20:32:22.851Z,15.37
2017-09-02T20:34:50.409Z,15.70
2017-09-02T20:37:17.924Z,16.47
2017-09-02T20:39:45.451Z,18.40
2017-09-02T20:42:13.003Z,16.90
2017-09-02T20:44:40.526Z,15.37
2017-09-02T20:47:08.099Z,15.70
2017-09-02T20:49:35.619Z,16.90
2017-09-02T20:52:03.136Z,15.70
2017-09-02T20:54:30.703Z,16.30
2017-09-02T20:56:58.235Z,15.50
2017-09-02T20:59:25.851Z,15.53
2017-09-02T21:01:53.411Z,15.70
2017-09-02T21:04:20.932Z,14.00
2017-09-02T21:06:48.499Z,13.70
2017-09-02T21:09:16.032Z,14.27
2017-09-02T21:11:43.544Z,17.50
2017-09-02T21:14:11.092Z,14.67
2017-09-02T21:16:38.611Z,15.83
2017-09-02T21:19:06.161Z,17.60
2017-09-02T21:21:33.733Z,16.27
2017-09-02T21:24:01.263Z,16.97
2017-09-02T21:26:28.800Z,22.30
2017-09-02T21:28:56.369Z,15.70
2017-09-02T21:31:23.935Z,18.23
2017-09-02T21:33:51.456Z,16.47
2017-09-02T21:36:18.971Z,14.63
2017-09-02T21:38:46.520Z,15.70
2017-09-02T21:41:15.986Z,15.63
2017-09-02T21:43:43.540Z,15.17
2017-09-02T21:46:11.052Z,15.40
2017-09-02T21:48:38.559Z,16.13
2017-09-02T21:51:06.105Z,14.97
2017-09-02T21:53:33.619Z,15.80
2017-09-02T21:56:01.415Z,15.30
2017-09-02T21:58:29.169Z,14.90
2017-09-02T22:00:56.723Z,13.33
2017-09-02T22:03:24.280Z,14.17
2017-09-02T22:05:51.843Z,14.07
2017-09-02T22:08:19.407Z,16.60
2017-09-02T22:10:46.930Z,15.87
2017-09-02T22:13:14.459Z,15.00
2017-09-02T22:15:42.041Z,14.33
2017-09-02T22:18:09.572Z,13.47
2017-09-02T22:20:37.107Z,13.67
2017-09-02T22:23:04.668Z,13.30
2017-09-02T22:25:32.250Z,14.10
2017-09-02T22:27:59.852Z,13.43
2017-09-02T22:30:27.424Z,12.73
2017-09-02T22:32:54.940Z,10.97
2017-09-02T22:35:22.508Z,11.70
2017-09-02T22:37:50.023Z,11.07
2017-09-02T22:40:17.568Z,11.47
2017-09-02T22:42:45.118Z,10.50
2017-09-02T22:45:12.639Z,12.37
2017-09-02T22:47:40.184Z,14.73
2017-09-02T22:50:07.704Z,12.03
2017-09-02T22:52:35.264Z,12.17
2017-09-02T22:55:02.852Z,12.43
2017-09-02T22:57:30.425Z,9.73
2017-09-02T22:59:57.955Z,10.47
2017-09-02T23:02:25.507Z,11.00
2017-09-02T23:04:53.030Z,11.37
2017-09-02T23:07:20.630Z,11.13
2017-09-02T23:09:48.180Z,11.00
2017-09-02T23:12:15.723Z,11.53
2017-09-02T23:14:43.307Z,11.50
2017-09-02T23:17:10.921Z,12.57
2017-09-02T23:19:38.444Z,12.57
2017-09-02T23:22:05.985Z,11.50
2017-09-02T23:24:33.563Z,12.27
2017-09-02T23:27:01.079Z,10.63
2017-09-02T23:29:28.646Z,11.80
2017-09-02T23:31:56.187Z,11.83
2017-09-02T23:34:23.744Z,11.10
2017-09-02T23:36:51.292Z,11.47
2017-09-02T23:39:18.814Z,11.67
2017-09-02T23:41:46.382Z,11.33
2017-09-02T23:44:13.910Z,10.50
2017-09-02T23:46:41.457Z,10.47
2017-09-02T23:49:09.128Z,10.57
2017-09-02T23:51:36.661Z,11.67
2017-09-02T23:54:04.263Z,11.50
2017-09-02T23:56:31.811Z,11.03
2017-09-02T23:58:59.324Z,10.70
